Time;durP1;ratioP1;P1;durP2;ratioP2;P2;SDS_P1;SDS_P2;PMS_P1;PMS_P2;Temp;Humidity;BMP_temperature;BMP_pressure;BME280_temperature;BME280_humidity;BME280_pressure;Samples;Min_cycle;Max_cycle;Signal;HPM_P1;HPM_P2
2023/08/31 00:02:25;;;;;;;84.22;81.13;;;;;;;22.59;69.16;98061.63;4927533;28;102839;-74
2023/08/31 00:04:55;;;;;;;111.30;107.20;;;;;;;22.89;67.65;98060.31;4926781;28;102827;-74
2023/08/31 00:07:23;;;;;;;98.00;94.30;;;;;;;22.58;67.84;98065.34;4927573;28;103535;-74
2023/08/31 00:09:53;;;;;;;106.70;102.70;;;;;;;22.86;66.61;98061.53;4927037;28;102882;-74
2023/08/31 00:12:22;;;;;;;85.18;81.97;;;;;;;22.76;67.58;98065.66;4927401;28;102716;-74
2023/08/31 00:14:51;;;;;;;86.40;83.13;;;;;;;22.89;67.13;98052.22;4917779;28;103192;-74
2023/08/31 00:17:19;;;;;;;82.30;79.20;;;;;;;22.53;68.60;98066.81;4918997;28;103453;-74
2023/08/31 00:19:47;;;;;;;84.55;81.35;;;;;;;22.69;67.47;98059.41;4924622;28;103710;-74
2023/08/31 00:22:15;;;;;;;84.47;81.27;;;;;;;22.48;67.73;98063.84;4925310;28;103086;-74
2023/08/31 00:24:42;;;;;;;99.13;95.45;;;;;;;22.92;67.79;98065.28;4927481;28;103893;-74
2023/08/31 00:27:12;;;;;;;82.47;79.18;;;;;;;22.47;68.11;98075.69;4924702;28;103899;-73
2023/08/31 00:29:40;;;;;;;91.30;87.80;;;;;;;22.74;67.39;98067.72;4926898;28;102837;-74
2023/08/31 00:32:11;;;;;;;85.47;82.25;;;;;;;22.27;67.71;98074.75;4925401;28;102787;-74
2023/08/31 00:34:39;;;;;;;79.68;76.72;;;;;;;22.34;68.77;98078.28;4925148;28;102639;-74
2023/08/31 00:37:09;;;;;;;79.88;76.78;;;;;;;22.35;68.28;98073.75;4922721;28;103322;-73
2023/08/31 00:39:37;;;;;;;64.15;61.53;;;;;;;21.69;70.18;98085.94;4925985;28;103195;-74
2023/08/31 00:42:05;;;;;;;63.30;60.70;;;;;;;21.85;70.11;98091.00;4926977;28;103189;-74
2023/08/31 00:44:33;;;;;;;55.45;53.25;;;;;;;21.07;72.74;98094.69;4927172;28;102595;-73
2023/08/31 00:47:02;;;;;;;56.27;53.97;;;;;;;20.71;73.29;98093.88;4923503;28;104558;-74
2023/08/31 00:49:31;;;;;;;61.42;58.97;;;;;;;21.12;71.60;98097.63;4924785;28;103323;-73
2023/08/31 00:51:59;;;;;;;79.15;76.00;;;;;;;21.86;69.59;98095.38;4927166;28;102636;-74
2023/08/31 00:54:27;;;;;;;82.55;79.43;;;;;;;21.40;70.77;98097.69;4925539;28;104495;-73
2023/08/31 00:56:57;;;;;;;92.95;89.43;;;;;;;21.47;69.33;98100.44;4924826;28;104343;-74
2023/08/31 00:59:26;;;;;;;94.30;90.65;;;;;;;21.83;68.19;98096.59;4914351;28;103460;-74
2023/08/31 01:02:04;;;;;;;94.45;90.85;;;;;;;22.06;68.28;98090.16;4911285;28;102922;-74
2023/08/31 01:04:42;;;;;;;72.88;69.93;;;;;;;21.41;70.58;98085.09;4924037;28;103092;-73
2023/08/31 01:07:22;;;;;;;64.13;61.60;;;;;;;21.16;71.83;98080.13;4924249;28;104131;-74
2023/08/31 01:09:58;;;;;;;71.68;68.82;;;;;;;21.34;70.73;98075.13;4923873;28;103302;-74
2023/08/31 01:12:32;;;;;;;86.07;82.63;;;;;;;21.87;68.99;98080.91;4925311;28;102627;-74
2023/08/31 01:15:07;;;;;;;102.10;98.27;;;;;;;22.23;67.37;98076.16;4928596;28;104409;-73
2023/08/31 01:17:42;;;;;;;120.88;116.38;;;;;;;22.33;66.75;98070.44;4925699;28;103279;-74
2023/08/31 01:20:15;;;;;;;141.05;135.82;;;;;;;22.27;65.87;98087.38;4923928;28;103222;-74
2023/08/31 01:22:47;;;;;;;160.47;154.57;;;;;;;22.44;65.98;98084.16;4924732;28;102974;-73
2023/08/31 01:25:19;;;;;;;141.50;136.32;;;;;;;22.34;66.11;98082.88;4925540;28;102966;-74
2023/08/31 01:27:47;;;;;;;106.88;102.97;;;;;;;21.85;67.14;98088.31;4910549;28;104160;-74
2023/08/31 01:30:16;;;;;;;84.75;81.35;;;;;;;21.50;68.08;98102.75;4922777;28;103366;-73
2023/08/31 01:32:46;;;;;;;109.25;105.20;;;;;;;22.05;66.97;98089.31;4925687;28;102630;-74
2023/08/31 01:35:17;;;;;;;96.00;92.30;;;;;;;21.76;67.57;98089.50;4925548;28;102779;-73
2023/08/31 01:37:53;;;;;;;92.05;88.60;;;;;;;21.68;68.17;98098.53;4922299;28;103371;-74
2023/08/31 01:40:27;;;;;;;102.95;99.15;;;;;;;21.58;67.56;98102.59;4925620;28;104345;-74
2023/08/31 01:42:56;;;;;;;114.28;109.85;;;;;;;21.54;67.59;98104.00;4927805;28;103846;-74
2023/08/31 01:45:26;;;;;;;109.05;104.95;;;;;;;21.89;67.15;98103.09;4924321;28;102704;-73
2023/08/31 01:47:53;;;;;;;108.77;104.67;;;;;;;21.46;68.24;98117.56;4924736;28;103853;-75
2023/08/31 01:50:24;;;;;;;117.37;112.97;;;;;;;21.84;67.25;98124.28;4924900;28;103207;-73
2023/08/31 01:52:53;;;;;;;117.50;113.05;;;;;;;21.82;66.95;98126.34;4924583;28;103009;-74
2023/08/31 01:55:21;;;;;;;93.53;89.97;;;;;;;21.47;68.50;98127.31;4931446;28;103709;-74
2023/08/31 01:57:50;;;;;;;79.55;76.35;;;;;;;21.35;68.95;98122.47;4908363;28;104329;-73
2023/08/31 02:00:27;;;;;;;79.90;76.80;;;;;;;21.22;69.16;98130.38;4924526;28;105857;-74
2023/08/31 02:02:56;;;;;;;82.95;79.68;;;;;;;21.43;69.06;98131.41;4928172;28;102756;-74
2023/08/31 02:05:24;;;;;;;128.53;123.73;;;;;;;21.82;67.25;98126.34;4925546;28;104431;-74
2023/08/31 02:07:53;;;;;;;124.95;120.05;;;;;;;21.71;67.20;98121.50;4909089;28;104126;-74
2023/08/31 02:10:23;;;;;;;86.65;83.28;;;;;;;21.43;68.59;98120.66;4921984;28;103177;-75
2023/08/31 02:12:52;;;;;;;78.47;75.38;;;;;;;21.18;70.63;98115.69;4924639;28;102788;-74
2023/08/31 02:15:20;;;;;;;111.72;107.53;;;;;;;21.92;68.11;98119.63;4926635;28;104040;-74
2023/08/31 02:17:48;;;;;;;127.40;122.40;;;;;;;21.93;66.94;98115.09;4905756;28;103240;-74
2023/08/31 02:20:20;;;;;;;149.67;144.07;;;;;;;22.26;66.96;98124.19;4908654;28;104016;-74
2023/08/31 02:22:49;;;;;;;132.48;127.45;;;;;;;22.11;66.40;98120.81;4924028;28;102696;-74
2023/08/31 02:25:17;;;;;;;95.57;91.90;;;;;;;21.85;68.01;98128.66;4912349;28;102830;-74
2023/08/31 02:27:46;;;;;;;100.80;97.00;;;;;;;21.98;67.90;98126.09;4923306;28;103217;-74
2023/08/31 02:30:17;;;;;;;129.30;124.38;;;;;;;22.23;66.94;98123.78;4924986;28;103111;-73
2023/08/31 02:32:45;;;;;;;135.95;130.75;;;;;;;22.14;66.75;98131.19;4924737;28;102589;-75
2023/08/31 02:35:14;;;;;;;152.80;146.80;;;;;;;22.26;66.25;98126.09;4926461;28;102866;-74
2023/08/31 02:37:42;;;;;;;98.65;94.95;;;;;;;21.94;67.18;98124.84;4924731;28;103290;-74
2023/08/31 02:40:11;;;;;;;152.00;146.30;;;;;;;22.31;66.80;98120.94;4924570;28;103355;-74
2023/08/31 02:42:39;;;;;;;162.65;156.60;;;;;;;22.42;66.45;98129.28;4923848;28;102948;-74
2023/08/31 02:45:08;;;;;;;159.43;153.45;;;;;;;22.49;66.16;98138.19;4925282;28;103842;-74
2023/08/31 02:47:37;;;;;;;110.77;106.47;;;;;;;21.78;66.94;98131.28;4922686;28;103966;-74
2023/08/31 02:50:06;;;;;;;83.72;80.43;;;;;;;21.47;69.73;98148.81;4913343;28;103250;-74
2023/08/31 02:52:34;;;;;;;100.57;96.57;;;;;;;22.05;67.84;98143.13;4923981;28;102676;-75
2023/08/31 02:55:03;;;;;;;140.88;135.43;;;;;;;22.29;66.58;98142.63;4925266;28;102966;-74
2023/08/31 02:57:31;;;;;;;106.30;102.25;;;;;;;21.79;67.68;98148.25;4907273;28;103387;-75
2023/08/31 02:59:59;;;;;;;106.30;102.15;;;;;;;22.12;67.40;98143.97;4906495;28;103306;-74
2023/08/31 03:02:27;;;;;;;93.70;90.20;;;;;;;22.10;67.39;98139.81;4923596;28;102900;-74
2023/08/31 03:04:57;;;;;;;130.18;125.38;;;;;;;22.36;66.38;98142.69;4924792;28;102931;-75
2023/08/31 03:07:25;;;;;;;122.93;118.25;;;;;;;22.24;66.05;98131.66;4925413;28;103281;-74
2023/08/31 03:09:53;;;;;;;90.60;87.13;;;;;;;22.07;66.62;98141.06;4924282;28;103626;-75
2023/08/31 03:12:22;;;;;;;116.18;111.72;;;;;;;22.19;66.72;98139.47;4907664;28;103349;-74
2023/08/31 03:14:50;;;;;;;130.93;125.83;;;;;;;21.83;66.05;98150.38;4924507;28;103173;-74
2023/08/31 03:17:18;;;;;;;78.20;75.22;;;;;;;21.71;68.67;98156.47;4922357;28;103202;-73
2023/08/31 03:19:46;;;;;;;69.38;66.68;;;;;;;21.13;69.24;98155.72;4927215;28;103280;-75
2023/08/31 03:22:15;;;;;;;79.63;76.53;;;;;;;21.53;68.53;98148.03;4930013;28;102616;-75
2023/08/31 03:24:43;;;;;;;100.73;97.03;;;;;;;21.76;67.87;98156.69;4927551;28;103117;-74
2023/08/31 03:27:11;;;;;;;95.45;91.85;;;;;;;21.69;67.56;98158.53;4927689;28;103311;-75
2023/08/31 03:29:40;;;;;;;174.47;168.27;;;;;;;21.96;66.76;98157.72;4920290;28;103133;-74
2023/08/31 03:32:08;;;;;;;180.05;173.38;;;;;;;22.09;66.31;98159.69;4925345;28;102684;-74
2023/08/31 03:34:35;;;;;;;197.30;190.15;;;;;;;22.14;64.88;98163.47;4927879;28;102565;-75
2023/08/31 03:37:03;;;;;;;167.47;161.20;;;;;;;22.03;64.68;98168.53;4926247;28;104108;-75
2023/08/31 03:39:34;;;;;;;95.70;92.07;;;;;;;20.68;68.34;98164.03;4925629;28;103715;-74
2023/08/31 03:42:02;;;;;;;60.92;58.35;;;;;;;20.83;70.68;98162.13;4925971;28;103718;-74
2023/08/31 03:44:30;;;;;;;94.03;90.32;;;;;;;21.33;67.99;98159.41;4921664;28;104247;-74
2023/08/31 03:46:58;;;;;;;122.15;117.55;;;;;;;21.60;66.80;98160.50;4927430;28;103913;-74
2023/08/31 03:49:26;;;;;;;92.70;89.20;;;;;;;21.36;68.20;98159.03;4926275;28;104178;-75
2023/08/31 03:51:54;;;;;;;84.00;80.70;;;;;;;21.07;68.56;98158.28;4925596;28;102613;-75
2023/08/31 03:54:22;;;;;;;114.25;109.95;;;;;;;21.37;67.80;98162.56;4926944;28;102956;-74
2023/08/31 03:56:53;;;;;;;138.27;132.98;;;;;;;21.63;66.78;98180.78;4925861;28;103336;-74
2023/08/31 03:59:21;;;;;;;177.03;170.33;;;;;;;21.83;66.84;98177.25;4925618;28;103109;-74
2023/08/31 04:01:49;;;;;;;196.50;189.30;;;;;;;21.98;65.73;98185.25;4933055;28;102923;-74
2023/08/31 04:04:17;;;;;;;154.02;148.35;;;;;;;21.62;65.36;98177.25;4932789;28;102732;-74
2023/08/31 04:06:47;;;;;;;131.77;126.88;;;;;;;21.48;66.40;98183.53;4907478;28;104017;-75
2023/08/31 04:09:15;;;;;;;183.48;176.60;;;;;;;21.82;66.73;98190.88;4922362;28;103238;-74
2023/08/31 04:11:43;;;;;;;166.27;160.05;;;;;;;21.61;65.89;98188.22;4929334;28;102859;-74
2023/08/31 04:14:12;;;;;;;204.77;197.50;;;;;;;21.89;65.28;98181.06;4937527;28;104419;-74
2023/08/31 04:16:40;;;;;;;232.90;224.57;;;;;;;22.00;64.98;98188.59;4909191;28;103404;-74
2023/08/31 04:19:08;;;;;;;194.17;187.23;;;;;;;21.93;64.92;98182.31;4913332;28;103732;-74
2023/08/31 04:21:37;;;;;;;221.13;213.43;;;;;;;22.00;64.39;98183.22;4925079;28;103688;-75
2023/08/31 04:24:06;;;;;;;252.13;243.38;;;;;;;22.10;64.64;98185.53;4926567;28;102844;-73
2023/08/31 04:26:34;;;;;;;152.70;147.07;;;;;;;21.30;65.56;98186.69;4926632;28;103015;-75
2023/08/31 04:29:03;;;;;;;138.40;133.18;;;;;;;21.30;66.41;98191.22;4926539;28;103202;-74
2023/08/31 04:31:32;;;;;;;135.00;130.00;;;;;;;21.50;67.26;98188.75;4924593;28;103122;-74
2023/08/31 04:34:00;;;;;;;131.65;126.70;;;;;;;21.57;66.36;98197.69;4926609;28;102864;-74
2023/08/31 04:36:28;;;;;;;137.17;132.00;;;;;;;21.63;66.35;98197.75;4923704;28;104160;-74
2023/08/31 04:38:56;;;;;;;214.50;206.80;;;;;;;21.85;66.07;98198.56;4925614;28;103582;-73
2023/08/31 04:41:24;;;;;;;226.57;218.50;;;;;;;21.89;65.43;98197.19;4925508;28;103672;-74
2023/08/31 04:43:52;;;;;;;124.97;120.28;;;;;;;20.87;66.77;98210.91;4925447;28;103153;-73
2023/08/31 04:46:20;;;;;;;90.38;86.88;;;;;;;20.31;70.56;98210.56;4927220;28;103376;-74
2023/08/31 04:48:49;;;;;;;68.78;65.78;;;;;;;19.74;73.01;98210.22;4937904;28;103360;-74
2023/08/31 04:51:32;;;;;;;90.55;87.13;;;;;;;20.73;70.25;98209.91;4941787;28;102565;-74
2023/08/31 04:54:00;;;;;;;123.45;118.75;;;;;;;21.33;68.65;98212.34;4919182;28;102734;-75
2023/08/31 04:56:32;;;;;;;151.45;145.55;;;;;;;21.51;67.21;98215.41;4943170;28;104092;-76
2023/08/31 04:59:02;;;;;;;193.02;185.80;;;;;;;21.67;66.75;98211.66;4940229;28;103602;-77
2023/08/31 05:01:30;;;;;;;133.95;128.65;;;;;;;21.29;67.09;98211.03;4944881;28;102593;-84
2023/08/31 05:04:00;;;;;;;110.75;106.55;;;;;;;21.20;67.79;98204.94;4945543;28;104240;-86
2023/08/31 05:06:27;;;;;;;211.63;203.80;;;;;;;21.54;66.70;98215.03;4939690;28;103437;-82
2023/08/31 05:08:56;;;;;;;236.77;228.07;;;;;;;21.71;66.04;98223.66;4945818;28;102892;-83
2023/08/31 05:11:26;;;;;;;162.27;156.07;;;;;;;21.70;66.65;98222.00;4942825;28;102645;-79
2023/08/31 05:13:54;;;;;;;262.08;252.77;;;;;;;21.83;65.42;98216.75;4940951;28;103968;-78
2023/08/31 05:16:22;;;;;;;154.13;148.48;;;;;;;21.16;65.96;98227.00;4942821;28;103928;-77
2023/08/31 05:18:50;;;;;;;171.23;164.93;;;;;;;21.19;66.32;98227.44;4946272;28;103453;-77
2023/08/31 05:21:19;;;;;;;179.98;173.18;;;;;;;21.17;66.70;98231.34;4938348;28;102803;-76
2023/08/31 05:23:47;;;;;;;99.43;95.43;;;;;;;20.37;70.95;98241.19;4945437;28;102567;-77
2023/08/31 05:26:15;;;;;;;103.68;99.65;;;;;;;20.53;70.03;98241.84;4927580;28;104440;-78
2023/08/31 05:28:44;;;;;;;122.07;117.30;;;;;;;20.67;69.44;98245.53;4944084;28;103557;-78
2023/08/31 05:31:12;;;;;;;103.22;99.18;;;;;;;20.46;71.68;98240.94;4942700;28;102551;-78
2023/08/31 05:33:40;;;;;;;92.88;89.15;;;;;;;20.28;72.13;98251.16;4944726;28;102927;-78
2023/08/31 05:36:08;;;;;;;95.07;91.28;;;;;;;20.54;71.78;98256.94;4943312;28;104004;-76
2023/08/31 05:38:37;;;;;;;114.45;110.07;;;;;;;20.93;70.20;98259.34;4939830;28;103295;-77
2023/08/31 05:41:08;;;;;;;156.23;150.07;;;;;;;20.97;68.77;98252.56;4940122;28;102603;-83
2023/08/31 05:43:39;;;;;;;180.95;173.90;;;;;;;21.20;67.90;98261.34;4941180;28;102803;-84
2023/08/31 05:46:10;;;;;;;110.20;105.90;;;;;;;20.60;70.93;98268.78;4939071;28;102992;-84
2023/08/31 05:48:38;;;;;;;160.15;153.98;;;;;;;21.06;68.72;98261.34;4944229;28;102939;-83
2023/08/31 05:51:06;;;;;;;165.27;158.77;;;;;;;21.31;67.95;98258.19;4947440;28;103097;-84
2023/08/31 05:53:34;;;;;;;208.07;200.20;;;;;;;21.56;67.06;98260.53;4933769;28;102966;-83
2023/08/31 05:56:04;;;;;;;221.90;213.55;;;;;;;21.49;66.88;98267.69;4926957;28;103461;-81
2023/08/31 05:58:36;;;;;;;249.23;239.97;;;;;;;21.67;66.56;98263.53;4956434;28;102953;-80
2023/08/31 06:01:05;;;;;;;287.85;277.17;;;;;;;21.76;65.99;98266.94;4937224;28;102923;-86
2023/08/31 06:03:34;;;;;;;292.10;281.48;;;;;;;21.73;66.36;98267.31;4951468;28;102730;-75
2023/08/31 06:06:03;;;;;;;234.03;225.43;;;;;;;21.52;66.44;98272.69;4943596;28;103870;-76
2023/08/31 06:08:31;;;;;;;171.02;164.32;;;;;;;21.21;67.65;98273.78;4943419;28;102543;-76
2023/08/31 06:11:02;;;;;;;246.13;237.13;;;;;;;21.66;66.34;98272.63;4941858;28;103003;-76
2023/08/31 06:13:31;;;;;;;270.13;260.30;;;;;;;21.72;66.15;98276.41;4945252;28;102974;-76
2023/08/31 06:15:59;;;;;;;220.80;212.57;;;;;;;21.58;65.97;98283.50;4943831;28;104237;-76
2023/08/31 06:18:29;;;;;;;289.35;278.92;;;;;;;21.94;65.04;98281.63;4939561;28;104045;-77
2023/08/31 06:20:58;;;;;;;261.90;252.40;;;;;;;21.70;65.71;98294.56;4941951;28;102955;-76
2023/08/31 06:23:25;;;;;;;236.00;227.32;;;;;;;21.62;66.20;98290.16;4939804;28;102726;-77
2023/08/31 06:25:53;;;;;;;200.63;193.07;;;;;;;21.04;68.03;98291.06;4939808;28;103216;-76
2023/08/31 06:28:21;;;;;;;258.50;249.00;;;;;;;21.78;66.10;98299.84;4941167;28;103212;-76
2023/08/31 06:30:51;;;;;;;239.38;230.75;;;;;;;21.56;66.38;98306.22;4941521;28;102858;-77
2023/08/31 06:33:20;;;;;;;231.50;222.85;;;;;;;21.43;66.82;98309.56;4942076;28;104171;-76
2023/08/31 06:35:51;;;;;;;166.95;160.55;;;;;;;20.40;70.81;98305.19;4938505;28;103732;-76
2023/08/31 06:38:20;;;;;;;166.38;160.07;;;;;;;21.31;68.14;98308.38;4940944;28;102710;-76
2023/08/31 06:40:48;;;;;;;132.03;126.70;;;;;;;20.91;70.77;98307.03;4943244;28;103062;-76
2023/08/31 06:43:16;;;;;;;166.07;159.50;;;;;;;21.41;68.68;98316.16;4940260;28;104126;-77
2023/08/31 06:45:44;;;;;;;250.30;240.87;;;;;;;21.95;67.08;98312.06;4922618;28;103529;-76
2023/08/31 06:48:13;;;;;;;262.30;252.40;;;;;;;22.21;66.69;98320.34;4930441;28;103944;-76
2023/08/31 06:50:41;;;;;;;289.35;278.73;;;;;;;22.04;66.36;98313.56;4942293;28;102720;-76
2023/08/31 06:53:09;;;;;;;289.00;278.43;;;;;;;22.14;66.22;98321.34;4946776;28;103316;-76
2023/08/31 06:55:38;;;;;;;303.27;292.48;;;;;;;22.06;66.25;98321.47;4928919;28;102995;-76
2023/08/31 06:58:08;;;;;;;338.30;326.30;;;;;;;22.68;63.11;98318.91;4947708;28;103108;-76
2023/08/31 07:00:38;;;;;;;300.10;289.67;;;;;;;22.67;63.56;98325.31;4941330;28;102922;-76
2023/08/31 07:03:08;;;;;;;240.60;232.03;;;;;;;22.15;65.61;98315.75;4945271;28;104156;-75
2023/08/31 07:05:43;;;;;;;290.00;279.83;;;;;;;22.62;62.81;98327.75;4946466;28;104056;-76
2023/08/31 07:08:11;;;;;;;244.35;235.90;;;;;;;21.76;64.85;98321.53;4943025;28;103131;-76
2023/08/31 07:10:39;;;;;;;251.57;243.02;;;;;;;22.82;62.03;98331.44;4946371;28;103549;-75
2023/08/31 07:13:09;;;;;;;242.93;234.57;;;;;;;23.35;62.00;98325.31;4924787;28;104363;-75
2023/08/31 07:15:38;;;;;;;253.90;245.35;;;;;;;23.23;61.72;98336.84;4941061;28;104190;-75
2023/08/31 07:18:06;;;;;;;231.07;223.10;;;;;;;23.00;62.17;98332.59;4942237;28;103538;-76
2023/08/31 07:20:34;;;;;;;198.38;191.48;;;;;;;22.78;61.72;98343.63;4935035;28;103872;-75
2023/08/31 07:23:05;;;;;;;198.83;191.67;;;;;;;22.65;61.80;98343.53;4945880;28;104518;-75
2023/08/31 07:25:33;;;;;;;186.18;179.60;;;;;;;22.90;61.33;98342.91;4940790;28;103310;-76
2023/08/31 07:28:02;;;;;;;143.52;138.30;;;;;;;23.41;58.95;98335.31;4945985;28;104366;-76
2023/08/31 07:30:33;;;;;;;167.33;161.23;;;;;;;23.62;59.22;98343.28;4942918;28;103421;-75
2023/08/31 07:33:03;;;;;;;145.60;140.20;;;;;;;24.01;58.41;98341.72;4944549;28;104572;-76
2023/08/31 07:35:43;;;;;;;156.73;151.03;;;;;;;23.05;60.31;98353.53;4946672;28;103744;-76
2023/08/31 07:38:13;;;;;;;114.32;109.93;;;;;;;23.93;57.83;98361.66;4942261;28;103244;-75
2023/08/31 07:40:41;;;;;;;113.60;109.20;;;;;;;24.25;57.20;98349.31;4943059;28;104468;-75
2023/08/31 07:43:11;;;;;;;98.50;94.85;;;;;;;25.02;56.21;98356.78;4943260;28;104461;-76
2023/08/31 07:45:40;;;;;;;103.00;99.00;;;;;;;25.28;55.61;98359.44;4941946;28;104353;-75
2023/08/31 07:48:08;;;;;;;118.68;114.35;;;;;;;26.10;53.48;98347.84;4938061;28;103314;-76
2023/08/31 07:50:35;;;;;;;148.93;143.32;;;;;;;25.92;51.97;98348.56;4942196;28;102887;-75
2023/08/31 07:53:04;;;;;;;141.00;135.70;;;;;;;25.48;53.63;98354.81;4943214;28;104317;-76
2023/08/31 07:55:33;;;;;;;130.57;125.72;;;;;;;25.57;49.94;98356.22;4942240;28;104434;-76
2023/08/31 07:58:02;;;;;;;151.18;145.43;;;;;;;25.68;50.18;98358.28;4931161;28;104331;-76
2023/08/31 08:00:30;;;;;;;223.77;216.07;;;;;;;25.87;50.05;98351.09;4944533;28;103037;-76
2023/08/31 08:02:58;;;;;;;225.75;218.00;;;;;;;26.58;49.33;98357.13;4926762;28;104345;-75
2023/08/31 08:05:26;;;;;;;267.50;258.17;;;;;;;26.80;46.74;98350.28;4927079;28;104361;-76
2023/08/31 08:07:54;;;;;;;310.27;299.10;;;;;;;26.97;44.89;98347.84;4944389;28;103248;-75
2023/08/31 08:10:22;;;;;;;279.83;269.67;;;;;;;26.91;46.65;98346.84;4927330;28;102907;-77
2023/08/31 08:12:51;;;;;;;257.67;248.52;;;;;;;26.98;44.45;98346.78;4944033;28;104117;-76
2023/08/31 08:15:19;;;;;;;277.30;267.45;;;;;;;26.80;43.95;98342.16;4936457;28;103904;-75
2023/08/31 08:17:48;;;;;;;349.65;336.75;;;;;;;25.66;44.94;98354.94;4943086;28;103987;-76
2023/08/31 08:20:16;;;;;;;375.27;360.30;;;;;;;26.14;43.45;98352.63;4941237;28;103250;-75
2023/08/31 08:22:47;;;;;;;384.55;368.65;;;;;;;25.90;43.40;98356.94;4944000;28;104325;-76
2023/08/31 08:25:17;;;;;;;375.05;358.98;;;;;;;25.83;43.00;98361.53;4941120;28;104900;-77
2023/08/31 08:27:45;;;;;;;363.40;348.17;;;;;;;24.80;44.87;98361.59;4944926;28;103276;-75
2023/08/31 08:30:15;;;;;;;376.73;360.90;;;;;;;24.63;45.39;98369.25;4944575;28;102937;-75
2023/08/31 08:32:44;;;;;;;507.63;483.83;;;;;;;25.62;43.66;98367.25;4941335;28;103134;-75
2023/08/31 08:35:12;;;;;;;570.63;542.17;;;;;;;25.43;44.33;98375.41;4943904;28;103873;-77
2023/08/31 08:37:39;;;;;;;461.52;433.83;;;;;;;25.52;43.53;98369.56;4943833;28;103165;-76
2023/08/31 08:40:08;;;;;;;267.65;258.17;;;;;;;25.49;44.27;98375.41;4937366;28;102986;-76
2023/08/31 08:42:42;;;;;;;247.75;237.65;;;;;;;25.57;45.75;98383.25;4938380;28;104279;-75
2023/08/31 08:45:16;;;;;;;436.53;415.17;;;;;;;26.21;44.46;98368.84;4938355;28;104404;-75
2023/08/31 08:47:45;;;;;;;575.42;548.53;;;;;;;27.29;43.23;98381.06;4940983;28;103735;-77
2023/08/31 08:50:13;;;;;;;576.67;550.75;;;;;;;28.39;43.09;98375.34;4940493;28;103706;-80
2023/08/31 08:52:42;;;;;;;501.70;480.45;;;;;;;24.52;48.57;98377.97;4945470;28;103486;-86
2023/08/31 08:55:11;;;;;;;494.35;474.38;;;;;;;27.18;45.20;98382.66;4942315;28;104144;-83
2023/08/31 08:57:39;;;;;;;400.83;384.43;;;;;;;26.66;45.65;98378.53;4938593;28;103346;-76
2023/08/31 09:00:10;;;;;;;315.65;302.55;;;;;;;25.68;45.93;98387.19;4936449;28;102727;-76
2023/08/31 09:02:40;;;;;;;286.73;275.02;;;;;;;25.32;48.44;98388.50;4941086;28;102771;-76
2023/08/31 09:05:10;;;;;;;316.58;303.48;;;;;;;26.25;46.90;98381.72;4939276;28;102963;-76
2023/08/31 09:08:01;;;;;;;364.35;349.15;;;;;;;27.60;43.38;98391.81;4935893;28;103447;-77
2023/08/31 09:10:36;;;;;;;418.67;401.27;;;;;;;27.09;43.52;98394.81;4936693;28;102622;-76
2023/08/31 09:13:07;;;;;;;377.90;362.73;;;;;;;26.75;44.07;98398.84;4941254;28;103810;-76
2023/08/31 09:15:41;;;;;;;365.92;351.35;;;;;;;26.99;43.48;98400.78;4937400;28;103413;-76
2023/08/31 09:18:15;;;;;;;332.05;319.15;;;;;;;26.28;45.56;98396.69;4939526;28;103253;-76
2023/08/31 09:20:45;;;;;;;311.42;299.45;;;;;;;25.97;45.46;98410.16;4936329;28;103717;-76
2023/08/31 09:23:13;;;;;;;330.35;317.17;;;;;;;26.74;43.09;98405.34;4944375;28;103427;-76
2023/08/31 09:25:47;;;;;;;277.73;266.47;;;;;;;27.08;40.95;98403.19;4937551;28;103285;-76
2023/08/31 09:28:16;;;;;;;236.13;226.57;;;;;;;26.65;41.35;98403.94;4942703;28;103242;-76
2023/08/31 09:30:44;;;;;;;166.35;159.65;;;;;;;27.76;40.16;98402.09;4944841;28;102785;-76
2023/08/31 09:33:17;;;;;;;149.82;143.73;;;;;;;26.55;39.21;98406.31;4945802;28;102620;-75
2023/08/31 09:35:50;;;;;;;132.07;126.70;;;;;;;26.92;39.69;98400.00;4945964;28;103096;-76
2023/08/31 09:38:18;;;;;;;145.20;139.30;;;;;;;27.46;39.83;98395.72;4946320;28;103385;-76
2023/08/31 09:40:47;;;;;;;149.50;143.32;;;;;;;27.85;39.50;98406.13;4925616;28;103639;-75
2023/08/31 09:43:20;;;;;;;131.50;125.90;;;;;;;28.14;39.45;98405.38;4937980;28;102796;-77
2023/08/31 09:45:49;;;;;;;84.03;80.43;;;;;;;28.90;37.22;98393.78;4939399;28;104555;-86
2023/08/31 09:48:20;;;;;;;97.00;92.82;;;;;;;28.08;38.26;98403.56;4936218;28;103159;-85
2023/08/31 09:50:49;;;;;;;131.23;125.63;;;;;;;28.16;39.56;98402.41;4941977;28;102587;-85
2023/08/31 09:53:18;;;;;;;104.85;100.40;;;;;;;28.59;37.75;98397.59;4935116;28;103856;-80
2023/08/31 09:55:48;;;;;;;64.18;61.40;;;;;;;29.03;37.12;98409.03;4942705;28;104196;-85
2023/08/31 09:58:19;;;;;;;38.47;36.85;;;;;;;29.35;36.22;98395.94;4942788;28;103308;-78
2023/08/31 10:00:49;;;;;;;75.97;72.78;;;;;;;29.84;36.22;98395.38;4943878;28;102584;-77
2023/08/31 10:03:17;;;;;;;75.00;71.60;;;;;;;29.55;36.67;98401.84;4936120;28;103814;-78
2023/08/31 10:05:50;;;;;;;49.60;47.42;;;;;;;29.65;35.64;98402.88;4941626;28;103205;-77
2023/08/31 10:08:19;;;;;;;81.47;77.88;;;;;;;28.34;37.12;98401.53;4945474;28;103675;-77
2023/08/31 10:10:47;;;;;;;94.65;90.50;;;;;;;28.01;36.73;98419.09;4941714;28;102682;-78
2023/08/31 10:13:15;;;;;;;37.50;35.83;;;;;;;30.26;36.45;98407.69;4944713;28;104444;-77
2023/08/31 10:15:45;;;;;;;58.85;56.35;;;;;;;28.59;35.91;98407.63;4937669;28;103222;-77
2023/08/31 10:18:12;;;;;;;70.20;67.20;;;;;;;27.99;35.38;98410.31;4938328;28;103496;-77
2023/08/31 10:20:43;;;;;;;96.68;92.45;;;;;;;27.90;37.09;98397.31;4936573;28;102636;-77
2023/08/31 10:23:14;;;;;;;54.55;52.10;;;;;;;28.02;36.40;98415.31;4945735;28;104294;-77
2023/08/31 10:26:04;;;;;;;99.82;95.53;;;;;;;27.26;37.07;98411.34;4937644;28;103354;-79
2023/08/31 10:28:40;;;;;;;80.80;77.20;;;;;;;28.59;36.00;98410.34;4938318;28;104435;-79
2023/08/31 10:31:10;;;;;;;86.75;82.93;;;;;;;27.88;36.63;98421.13;4944661;28;102796;-81
2023/08/31 10:33:42;;;;;;;75.65;72.25;;;;;;;27.21;35.70;98424.75;4944151;28;103196;-79
2023/08/31 10:36:11;;;;;;;78.05;74.63;;;;;;;26.59;37.01;98426.50;4944793;28;104155;-79
2023/08/31 10:38:40;;;;;;;76.88;73.45;;;;;;;27.56;36.71;98428.59;4943871;28;103143;-88
2023/08/31 10:41:22;;;;;;;80.55;77.05;;;;;;;28.11;36.46;98424.00;4942224;28;102974;-84
2023/08/31 10:43:52;;;;;;;76.22;72.82;;;;;;;27.98;36.85;98427.69;4946791;28;104044;-83
2023/08/31 10:46:28;;;;;;;87.05;82.90;;;;;;;27.11;38.43;98419.84;4941298;28;103832;-82
2023/08/31 10:48:57;;;;;;;81.93;78.28;;;;;;;27.97;36.89;98422.47;4942725;28;103147;-83
2023/08/31 10:51:28;;;;;;;74.63;71.22;;;;;;;28.66;37.27;98413.84;4942048;28;102591;-81
2023/08/31 10:54:09;;;;;;;80.13;76.07;;;;;;;27.65;37.37;98424.53;4945005;28;102914;-82
2023/08/31 10:56:54;;;;;;;71.50;68.20;;;;;;;28.37;37.28;98412.78;4939037;28;104299;-80
2023/08/31 10:59:23;;;;;;;74.80;71.43;;;;;;;28.04;37.04;98413.22;4942020;28;103568;-89
2023/08/31 11:01:57;;;;;;;79.60;75.78;;;;;;;27.73;37.31;98415.28;4944814;28;102572;-83
2023/08/31 11:04:27;;;;;;;74.70;71.22;;;;;;;27.27;37.95;98423.88;4952150;28;102932;-90
2023/08/31 11:07:14;;;;;;;74.80;71.18;;;;;;;27.33;37.71;98420.25;4942983;28;103228;-85
2023/08/31 11:09:46;;;;;;;71.10;67.82;;;;;;;27.17;37.58;98420.84;4944432;28;103121;-88
2023/08/31 11:12:16;;;;;;;81.45;77.70;;;;;;;27.39;37.55;98417.50;4943237;28;103179;-84